createdAt,value
2022-08-07T00:02:41.222Z,4.00
2022-08-07T00:04:58.884Z,3.38
2022-08-07T00:07:40.860Z,4.13
2022-08-07T00:10:26.226Z,4.05
2022-08-07T00:12:57.822Z,4.18
2022-08-07T00:15:38.096Z,4.83
2022-08-07T00:18:19.863Z,3.72
2022-08-07T00:21:08.263Z,4.20
2022-08-07T00:23:55.871Z,4.40
2022-08-07T00:26:58.970Z,3.92
2022-08-07T00:29:14.142Z,4.57
2022-08-07T00:31:44.330Z,4.65
2022-08-07T00:34:17.414Z,4.55
2022-08-07T00:36:48.861Z,4.63
2022-08-07T00:39:17.353Z,4.35
2022-08-07T00:42:02.211Z,4.20
2022-08-07T00:44:33.967Z,4.38
2022-08-07T00:47:03.066Z,4.22
2022-08-07T00:50:19.611Z,4.25
2022-08-07T00:52:23.307Z,5.13
2022-08-07T00:54:53.918Z,4.70
2022-08-07T00:57:26.178Z,5.53
2022-08-07T00:59:57.646Z,5.28
2022-08-07T01:02:28.308Z,4.82
2022-08-07T01:04:58.777Z,4.78
2022-08-07T01:07:29.644Z,4.83
2022-08-07T01:10:05.959Z,4.90
2022-08-07T01:12:53.489Z,4.50
2022-08-07T01:15:35.634Z,3.63
2022-08-07T01:18:17.116Z,4.20
2022-08-07T01:20:59.378Z,3.70
2022-08-07T01:23:36.897Z,3.85
2022-08-07T01:26:16.792Z,4.82
2022-08-07T01:28:50.850Z,4.60
2022-08-07T01:31:41.780Z,4.63
2022-08-07T01:34:15.325Z,5.50
2022-08-07T01:36:43.991Z,4.88
2022-08-07T01:39:17.653Z,5.43
2022-08-07T01:42:01.495Z,5.20
2022-08-07T01:44:40.392Z,4.68
2022-08-07T01:48:16.703Z,4.93
2022-08-07T01:50:02.657Z,5.45
2022-08-07T01:52:33.442Z,4.40
2022-08-07T01:55:02.510Z,4.57
2022-08-07T01:58:01.536Z,4.80
2022-08-07T02:00:29.469Z,5.13
2022-08-07T02:03:19.054Z,5.93
2022-08-07T02:05:59.789Z,5.18
2022-08-07T02:08:38.310Z,6.13
2022-08-07T02:11:11.271Z,6.05
2022-08-07T02:14:02.529Z,6.30
2022-08-07T02:16:33.495Z,6.38
2022-08-07T02:20:04.586Z,6.70
2022-08-07T02:21:57.769Z,4.95
2022-08-07T02:24:30.660Z,7.00
2022-08-07T02:27:04.716Z,6.50
2022-08-07T02:29:43.647Z,5.97
2022-08-07T02:32:29.907Z,5.60
2022-08-07T02:35:00.974Z,5.88
2022-08-07T02:37:36.068Z,6.05
2022-08-07T02:40:29.993Z,5.77
2022-08-07T02:43:01.141Z,6.03
2022-08-07T02:46:00.918Z,5.88
2022-08-07T02:48:33.012Z,6.70
2022-08-07T02:51:14.248Z,6.25
2022-08-07T02:54:02.360Z,6.47
2022-08-07T02:56:32.926Z,6.88
2022-08-07T02:59:05.899Z,6.63
2022-08-07T03:01:40.263Z,6.60
2022-08-07T03:04:14.064Z,6.28
2022-08-07T03:06:48.357Z,6.33
2022-08-07T03:09:42.174Z,6.28
2022-08-07T03:12:11.616Z,6.03
2022-08-07T03:14:52.834Z,6.40
2022-08-07T03:17:22.104Z,6.10
2022-08-07T03:19:55.262Z,7.30
2022-08-07T03:22:29.588Z,6.15
2022-08-07T03:25:00.387Z,5.78
2022-08-07T03:28:09.263Z,6.07
2022-08-07T03:30:24.315Z,6.22
2022-08-07T03:32:58.593Z,5.53
2022-08-07T03:35:43.407Z,6.43
2022-08-07T03:38:13.562Z,5.90
2022-08-07T03:40:45.335Z,5.97
2022-08-07T03:43:32.466Z,5.68
2022-08-07T03:46:03.468Z,4.97
2022-08-07T03:48:34.007Z,6.60
2022-08-07T03:51:14.273Z,5.95
2022-08-07T03:54:05.651Z,5.97
2022-08-07T03:57:03.502Z,6.10
2022-08-07T03:59:33.097Z,6.27
2022-08-07T04:02:00.994Z,5.95
2022-08-07T04:04:28.862Z,6.05
2022-08-07T04:07:16.795Z,5.72
2022-08-07T04:09:50.533Z,5.82
2022-08-07T04:12:26.725Z,5.43
2022-08-07T04:14:59.493Z,5.80
2022-08-07T04:18:58.180Z,5.93
2022-08-07T04:20:19.813Z,5.53
2022-08-07T04:22:53.585Z,6.18
2022-08-07T04:25:24.732Z,5.23
2022-08-07T04:27:59.310Z,5.82
2022-08-07T04:30:39.303Z,5.60
2022-08-07T04:33:23.183Z,5.70
2022-08-07T04:35:54.078Z,6.07
2022-08-07T04:38:32.739Z,5.40
2022-08-07T04:41:06.188Z,5.70
2022-08-07T04:44:12.633Z,5.53
2022-08-07T04:47:04.400Z,5.72
2022-08-07T04:49:57.758Z,5.60
2022-08-07T04:52:51.404Z,5.30
2022-08-07T04:58:10.237Z,5.20
2022-08-07T04:59:18.379Z,5.50
2022-08-07T05:01:45.005Z,4.95
2022-08-07T05:04:30.647Z,5.50
2022-08-07T05:07:20.409Z,6.00
2022-08-07T05:10:02.805Z,6.25
2022-08-07T05:12:53.125Z,5.28
2022-08-07T05:15:31.449Z,5.80
2022-08-07T05:18:08.803Z,5.13
2022-08-07T05:20:42.826Z,6.47
2022-08-07T05:23:16.555Z,5.85
2022-08-07T05:26:13.401Z,5.78
2022-08-07T05:28:36.347Z,4.53
2022-08-07T05:31:16.657Z,5.25
2022-08-07T05:34:01.292Z,4.10
2022-08-07T05:36:41.467Z,4.45
2022-08-07T05:40:14.269Z,4.90
2022-08-07T05:42:12.493Z,4.78
2022-08-07T05:44:53.033Z,4.63
2022-08-07T05:47:38.248Z,4.20
2022-08-07T05:50:20.802Z,4.05
2022-08-07T05:52:50.405Z,3.95
2022-08-07T05:55:20.858Z,3.97
2022-08-07T05:57:51.460Z,5.43
2022-08-07T06:00:19.828Z,6.00
2022-08-07T06:02:56.554Z,5.05
2022-08-07T06:05:29.848Z,4.72
2022-08-07T06:08:14.612Z,4.00
2022-08-07T06:10:52.011Z,3.97
2022-08-07T06:14:10.741Z,4.13
2022-08-07T06:16:10.340Z,4.00
2022-08-07T06:18:43.353Z,4.10
2022-08-07T06:22:15.415Z,4.50
2022-08-07T06:24:38.269Z,4.30
2022-08-07T06:27:03.517Z,4.17
2022-08-07T06:29:34.258Z,4.85
2022-08-07T06:32:04.228Z,4.28
2022-08-07T06:34:32.198Z,4.32
2022-08-07T06:37:03.151Z,4.47
2022-08-07T06:40:16.632Z,3.40
2022-08-07T06:42:35.083Z,4.40
2022-08-07T06:45:22.417Z,3.78
2022-08-07T06:47:58.668Z,3.58
2022-08-07T06:50:48.684Z,3.78
2022-08-07T06:54:12.047Z,3.13
2022-08-07T06:56:16.889Z,4.00
2022-08-07T07:00:11.707Z,3.55
2022-08-07T07:01:48.889Z,3.90
2022-08-07T07:04:33.016Z,3.40
2022-08-07T07:07:10.648Z,4.33
2022-08-07T07:09:57.076Z,3.47
2022-08-07T07:12:35.530Z,3.15
2022-08-07T07:15:23.818Z,3.03
2022-08-07T07:17:58.125Z,2.90
2022-08-07T07:20:33.789Z,3.47
2022-08-07T07:24:08.577Z,3.30
2022-08-07T07:26:34.857Z,3.38
2022-08-07T07:29:40.185Z,3.25
2022-08-07T07:31:49.770Z,2.80
2022-08-07T07:34:32.003Z,2.33
2022-08-07T07:37:05.392Z,3.63
2022-08-07T07:39:52.314Z,2.85
2022-08-07T07:42:26.019Z,3.00
2022-08-07T07:45:06.035Z,3.05
2022-08-07T07:47:43.033Z,2.43
2022-08-07T07:50:36.531Z,2.83
2022-08-07T07:53:20.143Z,2.38
2022-08-07T07:55:54.642Z,3.10
2022-08-07T07:58:40.339Z,3.00
2022-08-07T08:02:03.336Z,2.83
2022-08-07T08:04:09.798Z,2.53
2022-08-07T08:06:45.150Z,2.55
2022-08-07T08:09:29.242Z,2.75
2022-08-07T08:12:01.764Z,3.65
2022-08-07T08:14:34.338Z,3.33
2022-08-07T08:17:55.760Z,3.20
2022-08-07T08:23:01.456Z,3.20
2022-08-07T08:25:52.217Z,3.03
2022-08-07T08:28:37.986Z,2.47
2022-08-07T08:31:15.819Z,2.42
2022-08-07T08:33:49.391Z,2.72
2022-08-07T08:36:29.650Z,2.42
2022-08-07T08:39:02.198Z,2.40
2022-08-07T08:41:58.314Z,3.00
2022-08-07T08:45:04.248Z,2.83
2022-08-07T08:47:56.071Z,2.90
2022-08-07T08:50:45.431Z,2.58
2022-08-07T08:54:00.978Z,2.80
2022-08-07T08:57:00.232Z,2.90
2022-08-07T09:00:28.810Z,2.38
2022-08-07T09:03:23.049Z,2.75
2022-08-07T09:06:19.660Z,2.40
2022-08-07T09:09:13.417Z,2.05
2022-08-07T09:12:31.361Z,2.13
2022-08-07T09:16:21.958Z,2.70
2022-08-07T09:19:03.466Z,2.40
2022-08-07T09:22:22.970Z,2.30
2022-08-07T09:24:58.658Z,2.28
2022-08-07T09:27:59.545Z,2.40
2022-08-07T09:31:07.394Z,1.92
2022-08-07T09:33:58.205Z,2.65
2022-08-07T09:36:37.053Z,1.88
2022-08-07T09:39:57.970Z,2.92
2022-08-07T09:42:51.918Z,2.47
2022-08-07T09:47:25.881Z,2.28
2022-08-07T09:50:02.530Z,2.15
2022-08-07T09:52:15.509Z,1.73
2022-08-07T09:55:16.931Z,2.22
2022-08-07T09:58:31.973Z,2.80
2022-08-07T10:01:51.692Z,2.30
2022-08-07T10:04:53.129Z,1.98
2022-08-07T10:07:52.364Z,3.20
2022-08-07T10:11:59.818Z,2.38
2022-08-07T10:14:01.294Z,2.67
2022-08-07T10:16:39.410Z,2.97
2022-08-07T10:19:27.502Z,3.00
2022-08-07T10:22:46.164Z,2.22
2022-08-07T10:25:51.920Z,3.13
2022-08-07T10:28:39.165Z,2.00
2022-08-07T10:31:49.068Z,2.13
2022-08-07T10:52:51.552Z,1.95
2022-08-07T10:55:41.556Z,2.63
2022-08-07T10:58:40.366Z,2.40
2022-08-07T11:01:23.649Z,1.73
2022-08-07T11:04:17.070Z,2.15
2022-08-07T11:07:03.773Z,2.00
2022-08-07T11:10:07.661Z,2.03
2022-08-07T11:13:02.176Z,2.40
2022-08-07T11:15:33.024Z,2.13
2022-08-07T11:18:05.904Z,2.47
2022-08-07T11:20:47.060Z,2.30
2022-08-07T11:23:38.694Z,2.75
2022-08-07T11:26:14.373Z,2.73
2022-08-07T11:28:51.334Z,2.63
2022-08-07T11:31:27.276Z,2.20
2022-08-07T11:34:00.973Z,2.05
2022-08-07T11:37:03.598Z,2.47
2022-08-07T11:40:00.450Z,2.20
2022-08-07T11:42:40.981Z,2.50
2022-08-07T11:45:15.614Z,2.63
2022-08-07T11:48:31.252Z,2.55
2022-08-07T11:51:41.476Z,2.20
2022-08-07T11:54:30.014Z,2.73
2022-08-07T11:57:59.665Z,2.13
2022-08-07T12:00:28.371Z,2.80
2022-08-07T12:03:45.037Z,2.10
2022-08-07T12:06:39.165Z,2.55
2022-08-07T12:09:25.082Z,2.20
2022-08-07T12:12:10.782Z,2.40
2022-08-07T12:15:03.769Z,2.20
2022-08-07T12:17:59.054Z,2.13
2022-08-07T12:20:43.068Z,2.28
2022-08-07T12:23:37.353Z,2.53
2022-08-07T12:26:35.432Z,2.30
2022-08-07T12:29:46.955Z,2.60
2022-08-07T12:32:51.744Z,2.92
2022-08-07T12:35:20.693Z,3.35
2022-08-07T12:38:11.338Z,2.93
2022-08-07T12:40:47.581Z,2.90
2022-08-07T12:44:02.888Z,3.47
2022-08-07T12:46:32.506Z,3.38
2022-08-07T12:49:25.653Z,3.65
2022-08-07T12:52:17.995Z,3.33
2022-08-07T12:55:05.263Z,2.53
2022-08-07T12:57:39.077Z,2.67
2022-08-07T13:00:35.837Z,2.88
2022-08-07T13:04:02.431Z,3.42
2022-08-07T13:07:00.182Z,2.80
2022-08-07T13:10:19.880Z,3.10
2022-08-07T13:13:09.521Z,3.28
2022-08-07T13:16:02.230Z,3.42
2022-08-07T13:18:58.556Z,2.92
2022-08-07T13:22:19.681Z,3.13
2022-08-07T13:24:56.945Z,3.07
2022-08-07T13:28:06.262Z,2.55
2022-08-07T13:30:19.679Z,3.53
2022-08-07T13:34:32.730Z,3.55
2022-08-07T13:36:45.286Z,3.05
2022-08-07T13:40:32.904Z,2.47
2022-08-07T13:42:25.088Z,3.23
2022-08-07T13:44:55.447Z,3.28
2022-08-07T13:48:05.576Z,3.58
2022-08-07T13:50:35.277Z,2.80
2022-08-07T13:53:21.084Z,3.70
2022-08-07T13:55:54.407Z,3.40
2022-08-07T13:58:50.397Z,3.45
2022-08-07T14:01:26.226Z,3.10
2022-08-07T14:04:07.603Z,2.92
2022-08-07T14:06:38.983Z,3.88
2022-08-07T14:09:16.985Z,3.30
2022-08-07T14:12:07.281Z,3.75
2022-08-07T14:14:43.628Z,4.13
2022-08-07T14:17:51.647Z,4.70
2022-08-07T14:20:42.032Z,4.15
2022-08-07T14:23:31.217Z,3.67
2022-08-07T14:26:28.071Z,3.47
2022-08-07T14:29:06.048Z,4.63
2022-08-07T14:31:43.448Z,3.33
2022-08-07T14:34:29.685Z,4.65
2022-08-07T14:37:03.475Z,3.47
2022-08-07T14:40:16.828Z,4.13
2022-08-07T14:42:31.459Z,4.28
2022-08-07T14:45:21.457Z,3.67
2022-08-07T14:47:51.144Z,3.42
2022-08-07T14:50:22.593Z,3.80
2022-08-07T14:52:54.318Z,3.33
2022-08-07T14:55:23.332Z,3.55
2022-08-07T14:57:58.110Z,3.22
2022-08-07T15:00:37.971Z,2.95
2022-08-07T15:03:18.772Z,3.10
2022-08-07T15:08:50.379Z,2.58
2022-08-07T15:14:20.608Z,3.05
2022-08-07T15:16:55.138Z,2.92
2022-08-07T15:20:30.405Z,3.33
2022-08-07T15:25:17.236Z,2.95
2022-08-07T15:28:01.923Z,2.67
2022-08-07T15:30:36.599Z,3.20
2022-08-07T15:33:33.469Z,2.57
2022-08-07T15:36:07.767Z,2.45
2022-08-07T15:38:58.753Z,3.15
2022-08-07T15:42:44.078Z,2.50
2022-08-07T15:44:17.200Z,2.40
2022-08-07T15:46:52.636Z,2.23
2022-08-07T15:52:20.789Z,2.97
2022-08-07T15:54:49.500Z,3.08
2022-08-07T15:57:28.174Z,2.50
2022-08-07T16:00:08.695Z,47.30
2022-08-07T16:02:57.666Z,32.20
2022-08-07T16:05:31.322Z,14.15
2022-08-07T16:08:31.125Z,13.60
2022-08-07T16:11:04.708Z,9.80
2022-08-07T16:14:12.845Z,24.40
2022-08-07T16:17:16.207Z,22.33
2022-08-07T16:20:03.718Z,9.90
2022-08-07T16:22:55.566Z,11.40
2022-08-07T16:25:54.982Z,14.23
2022-08-07T16:30:07.090Z,8.98
2022-08-07T16:31:51.429Z,3.03
2022-08-07T16:34:41.866Z,2.90
2022-08-07T16:38:05.811Z,2.67
2022-08-07T16:40:33.930Z,2.60
2022-08-07T16:44:03.929Z,3.85
2022-08-07T16:47:05.904Z,3.70
2022-08-07T16:50:27.972Z,3.93
2022-08-07T16:52:51.707Z,3.03
2022-08-07T16:55:47.925Z,3.70
2022-08-07T16:59:11.344Z,3.83
2022-08-07T17:01:51.712Z,3.53
2022-08-07T17:04:58.991Z,2.90
2022-08-07T17:07:55.192Z,3.33
2022-08-07T17:10:43.954Z,3.42
2022-08-07T17:13:41.786Z,5.78
2022-08-07T17:16:25.745Z,3.55
2022-08-07T17:18:53.613Z,2.87
2022-08-07T17:21:51.100Z,2.97
2022-08-07T17:24:50.109Z,3.50
2022-08-07T17:27:50.827Z,3.90
2022-08-07T17:30:26.585Z,3.13
2022-08-07T17:33:39.134Z,3.20
2022-08-07T17:36:58.022Z,3.90
2022-08-07T17:39:58.664Z,10.10
2022-08-07T17:42:59.077Z,5.93
2022-08-07T17:45:43.552Z,3.13
2022-08-07T17:48:30.431Z,3.35
2022-08-07T17:51:59.861Z,3.30
2022-08-07T17:54:53.169Z,4.00
2022-08-07T17:57:58.342Z,4.50
2022-08-07T18:00:33.104Z,2.88
2022-08-07T18:03:18.715Z,4.18
2022-08-07T18:06:03.535Z,3.92
2022-08-07T18:09:05.476Z,3.67
2022-08-07T18:12:19.354Z,3.42
2022-08-07T18:15:22.700Z,4.30
2022-08-07T18:18:46.956Z,3.70
2022-08-07T18:21:12.329Z,3.42
2022-08-07T18:23:58.515Z,3.17
2022-08-07T18:26:59.828Z,3.53
2022-08-07T18:30:05.572Z,4.63
2022-08-07T18:33:27.014Z,4.63
2022-08-07T18:36:14.280Z,3.40
2022-08-07T18:40:09.007Z,4.03
2022-08-07T18:42:21.410Z,4.68
2022-08-07T18:45:44.735Z,4.32
2022-08-07T18:48:05.805Z,3.88
2022-08-07T18:50:48.699Z,3.97
2022-08-07T18:53:46.629Z,4.10
2022-08-07T18:56:31.465Z,4.07
2022-08-07T18:59:47.649Z,4.35
2022-08-07T19:02:42.441Z,4.22
2022-08-07T19:06:02.596Z,4.30
2022-08-07T19:08:46.345Z,4.40
2022-08-07T19:11:35.739Z,4.70
2022-08-07T19:14:29.886Z,6.00
2022-08-07T19:17:06.662Z,4.40
2022-08-07T19:20:29.966Z,6.47
2022-08-07T19:23:20.475Z,5.33
2022-08-07T19:26:28.693Z,16.33
2022-08-07T19:30:54.705Z,17.33
2022-08-07T19:32:17.061Z,6.47
2022-08-07T19:34:55.267Z,4.22
2022-08-07T19:37:24.215Z,4.93
2022-08-07T19:40:14.091Z,5.47
2022-08-07T19:42:43.124Z,5.38
2022-08-07T19:46:05.056Z,5.93
2022-08-07T19:48:18.666Z,4.18
2022-08-07T19:50:53.453Z,4.57
2022-08-07T19:54:33.549Z,4.38
2022-08-07T19:57:51.830Z,4.45
2022-08-07T19:59:02.504Z,4.30
2022-08-07T20:01:52.658Z,4.50
2022-08-07T20:04:46.296Z,4.23
2022-08-07T20:07:23.884Z,4.78
2022-08-07T20:10:37.839Z,4.75
2022-08-07T20:13:02.167Z,4.47
2022-08-07T20:15:39.755Z,4.65
2022-08-07T20:18:18.085Z,4.87
2022-08-07T20:21:00.541Z,6.65
2022-08-07T20:23:51.863Z,6.03
2022-08-07T20:26:29.886Z,6.53
2022-08-07T20:29:46.969Z,7.32
2022-08-07T20:32:11.589Z,12.40
2022-08-07T20:35:00.951Z,23.60
2022-08-07T20:37:57.817Z,28.40
2022-08-07T20:40:33.084Z,7.47
2022-08-07T20:43:09.651Z,10.68
2022-08-07T20:46:26.043Z,12.27
2022-08-07T20:49:53.915Z,21.73
2022-08-07T20:51:53.879Z,25.73
2022-08-07T20:54:30.174Z,9.25
2022-08-07T20:57:08.276Z,8.18
2022-08-07T21:00:07.973Z,6.63
2022-08-07T21:03:01.484Z,5.90
2022-08-07T21:05:50.796Z,7.47
2022-08-07T21:08:37.862Z,7.07
2022-08-07T21:11:29.008Z,10.02
2022-08-07T21:14:34.326Z,15.60
2022-08-07T21:18:03.235Z,12.77
2022-08-07T21:20:19.074Z,15.48
2022-08-07T21:23:08.182Z,8.77
2022-08-07T21:25:56.547Z,7.43
2022-08-07T21:28:50.417Z,6.80
2022-08-07T21:31:49.326Z,7.03
2022-08-07T21:34:46.101Z,10.52
2022-08-07T21:37:59.231Z,15.35
2022-08-07T21:40:50.215Z,11.57
2022-08-07T21:43:55.099Z,7.40
2022-08-07T21:46:56.379Z,6.43
2022-08-07T21:50:01.927Z,5.78
2022-08-07T21:53:01.034Z,5.93
2022-08-07T21:56:03.899Z,5.05
2022-08-07T21:58:56.569Z,3.80
2022-08-07T22:02:10.888Z,5.18
2022-08-07T22:04:26.444Z,5.63
2022-08-07T22:07:02.537Z,4.80
2022-08-07T22:09:54.368Z,3.92
2022-08-07T22:12:47.762Z,5.20
2022-08-07T22:16:39.248Z,5.32
2022-08-07T22:18:38.142Z,4.97
2022-08-07T22:21:21.720Z,4.95
2022-08-07T22:24:18.248Z,5.43
2022-08-07T22:26:54.391Z,4.50
2022-08-07T22:29:49.788Z,4.57
2022-08-07T22:33:09.374Z,6.15
2022-08-07T22:35:55.286Z,4.88
2022-08-07T22:38:51.889Z,8.98
2022-08-07T22:42:03.280Z,6.57
2022-08-07T22:44:25.630Z,5.97
2022-08-07T22:47:27.980Z,4.53
2022-08-07T22:50:29.156Z,3.97
2022-08-07T22:54:06.746Z,4.38
2022-08-07T22:56:33.585Z,4.07
2022-08-07T22:59:21.282Z,3.97
2022-08-07T23:02:27.559Z,3.97
2022-08-07T23:06:14.864Z,3.88
2022-08-07T23:08:46.811Z,4.20
2022-08-07T23:11:45.710Z,3.60
2022-08-07T23:14:16.152Z,3.85
2022-08-07T23:17:08.898Z,3.25
2022-08-07T23:20:05.922Z,4.15
2022-08-07T23:22:40.243Z,3.80
2022-08-07T23:25:34.421Z,2.87
2022-08-07T23:28:32.950Z,3.83
2022-08-07T23:32:49.514Z,3.63
2022-08-07T23:34:39.887Z,3.63
2022-08-07T23:38:01.951Z,3.65
2022-08-07T23:40:53.456Z,4.03
2022-08-07T23:43:38.950Z,3.65
2022-08-07T23:46:27.145Z,3.40
2022-08-07T23:49:03.385Z,3.97
2022-08-07T23:53:16.958Z,3.50
2022-08-07T23:54:36.031Z,3.20
2022-08-07T23:57:28.442Z,3.08
